createdAt,value
2023-04-24T00:02:14.804Z,17.05
2023-04-24T00:04:45.877Z,17.07
2023-04-24T00:07:14.131Z,17.26
2023-04-24T00:09:41.900Z,17.14
2023-04-24T00:12:09.960Z,17.16
2023-04-24T00:14:37.390Z,17.11
2023-04-24T00:17:04.989Z,17.20
2023-04-24T00:19:32.565Z,17.20
2023-04-24T00:21:59.895Z,17.08
2023-04-24T00:24:27.303Z,17.08
2023-04-24T00:26:54.675Z,17.05
2023-04-24T00:29:22.186Z,16.95
2023-04-24T00:31:49.746Z,16.87
2023-04-24T00:34:17.446Z,16.85
2023-04-24T00:36:44.884Z,16.87
2023-04-24T00:39:12.259Z,16.55
2023-04-24T00:41:39.641Z,16.75
2023-04-24T00:44:07.060Z,16.76
2023-04-24T00:46:34.558Z,16.75
2023-04-24T00:49:01.950Z,16.71
2023-04-24T00:51:29.513Z,16.67
2023-04-24T00:53:56.957Z,16.60
2023-04-24T00:56:24.690Z,16.66
2023-04-24T00:58:52.480Z,16.54
2023-04-24T01:01:24.707Z,16.58
2023-04-24T01:03:52.831Z,16.59
2023-04-24T01:06:21.496Z,16.53
2023-04-24T01:08:49.774Z,16.50
2023-04-24T01:11:17.373Z,16.58
2023-04-24T01:13:47.031Z,16.44
2023-04-24T01:16:16.008Z,16.36
2023-04-24T01:18:43.560Z,16.46
2023-04-24T01:21:14.909Z,16.45
2023-04-24T01:23:42.332Z,16.47
2023-04-24T01:26:09.816Z,16.57
2023-04-24T01:28:37.831Z,16.52
2023-04-24T01:31:06.990Z,16.52
2023-04-24T01:33:34.841Z,16.46
2023-04-24T01:36:02.678Z,16.38
2023-04-24T01:38:30.292Z,16.37
2023-04-24T01:40:57.647Z,16.28
2023-04-24T01:43:26.239Z,16.28
2023-04-24T01:45:53.624Z,16.11
2023-04-24T01:48:21.350Z,16.12
2023-04-24T01:50:48.757Z,16.06
2023-04-24T01:53:16.220Z,15.95
2023-04-24T01:55:43.786Z,15.73
2023-04-24T01:58:13.899Z,15.85
2023-04-24T02:00:42.176Z,15.91
2023-04-24T02:03:09.712Z,15.79
2023-04-24T02:05:37.282Z,15.70
2023-04-24T02:08:04.799Z,15.61
2023-04-24T02:10:32.201Z,15.56
2023-04-24T02:13:00.799Z,15.49
2023-04-24T02:15:28.230Z,15.43
2023-04-24T02:17:55.774Z,15.29
2023-04-24T02:20:23.349Z,15.09
2023-04-24T02:22:50.752Z,15.15
2023-04-24T02:25:19.512Z,15.17
2023-04-24T02:27:47.453Z,15.26
2023-04-24T02:30:15.074Z,15.02
2023-04-24T02:32:42.439Z,15.04
2023-04-24T02:35:12.205Z,15.17
2023-04-24T02:37:39.830Z,15.19
2023-04-24T02:40:08.459Z,15.19
2023-04-24T02:42:35.991Z,14.94
2023-04-24T02:45:03.569Z,15.05
2023-04-24T02:47:31.839Z,14.84
2023-04-24T02:50:01.204Z,14.96
2023-04-24T02:52:29.248Z,14.80
2023-04-24T02:54:56.746Z,14.69
2023-04-24T02:57:24.236Z,14.68
2023-04-24T02:59:51.740Z,14.85
2023-04-24T03:02:19.337Z,14.87
2023-04-24T03:04:48.882Z,15.03
2023-04-24T03:07:16.400Z,14.94
2023-04-24T03:09:44.644Z,14.89
2023-04-24T03:12:12.159Z,14.92
2023-04-24T03:14:40.537Z,14.81
2023-04-24T03:17:07.974Z,14.85
2023-04-24T03:19:35.323Z,14.77
2023-04-24T03:22:10.361Z,14.95
2023-04-24T03:24:38.922Z,14.76
2023-04-24T03:27:06.623Z,14.90
2023-04-24T03:30:12.559Z,14.62
2023-04-24T03:32:51.319Z,14.61
2023-04-24T03:35:23.874Z,14.52
2023-04-24T03:37:52.310Z,14.48
2023-04-24T03:40:38.306Z,14.19
2023-04-24T03:43:15.229Z,14.15
2023-04-24T03:45:43.580Z,14.03
2023-04-24T03:48:11.935Z,13.98
2023-04-24T03:50:39.594Z,13.93
2023-04-24T03:53:10.376Z,13.77
2023-04-24T03:55:41.232Z,13.84
2023-04-24T03:58:09.685Z,13.76
2023-04-24T04:00:38.536Z,13.82
2023-04-24T04:03:38.455Z,13.68
2023-04-24T04:06:06.817Z,13.77
2023-04-24T04:08:34.321Z,13.80
2023-04-24T04:11:03.956Z,13.94
2023-04-24T04:13:32.855Z,13.85
2023-04-24T04:16:00.806Z,13.78
2023-04-24T04:18:28.479Z,13.67
2023-04-24T04:20:56.066Z,13.77
2023-04-24T04:23:24.335Z,13.78
2023-04-24T04:26:06.815Z,13.73
2023-04-24T04:28:51.106Z,13.71
2023-04-24T04:31:18.610Z,13.70
2023-04-24T04:33:46.305Z,13.96
2023-04-24T04:36:13.807Z,13.95
2023-04-24T04:38:46.334Z,13.87
2023-04-24T04:41:24.757Z,13.72
2023-04-24T04:43:53.836Z,13.74
2023-04-24T04:46:22.621Z,13.86
2023-04-24T04:49:19.799Z,13.81
2023-04-24T04:51:48.088Z,13.90
2023-04-24T04:54:16.033Z,13.85
2023-04-24T04:56:43.518Z,13.87
2023-04-24T04:59:12.078Z,13.79
2023-04-24T05:01:41.285Z,13.78
2023-04-24T05:04:09.806Z,13.82
2023-04-24T05:06:38.687Z,13.91
2023-04-24T05:09:08.543Z,13.83
2023-04-24T05:11:45.843Z,13.82
2023-04-24T05:14:16.227Z,13.77
2023-04-24T05:16:44.386Z,13.75
2023-04-24T05:19:15.701Z,13.77
2023-04-24T05:21:43.243Z,13.78
2023-04-24T05:24:11.875Z,13.68
2023-04-24T05:26:59.757Z,13.74
2023-04-24T05:29:34.268Z,13.75
2023-04-24T05:32:02.067Z,13.84
2023-04-24T05:34:31.574Z,13.86
2023-04-24T05:36:59.318Z,13.86
2023-04-24T05:39:27.186Z,13.83
2023-04-24T05:41:59.043Z,13.84
2023-04-24T05:44:26.838Z,13.77
2023-04-24T05:46:56.430Z,13.57
2023-04-24T05:49:24.384Z,13.49
2023-04-24T05:51:51.939Z,13.69
2023-04-24T05:54:19.440Z,13.68
2023-04-24T05:56:47.530Z,13.85
2023-04-24T05:59:22.265Z,13.71
2023-04-24T06:01:50.027Z,13.69
2023-04-24T06:04:20.685Z,13.68
2023-04-24T06:06:51.789Z,13.84
2023-04-24T06:09:19.655Z,13.93
2023-04-24T06:11:47.068Z,13.89
2023-04-24T06:14:15.753Z,13.72
2023-04-24T06:17:17.327Z,13.75
2023-04-24T06:19:46.634Z,13.69
2023-04-24T06:22:14.431Z,13.51
2023-04-24T06:24:42.535Z,13.51
2023-04-24T06:27:10.131Z,13.60
2023-04-24T06:29:37.685Z,13.62
2023-04-24T06:32:05.181Z,13.69
2023-04-24T06:34:35.093Z,13.75
2023-04-24T06:37:03.126Z,13.65
2023-04-24T06:39:30.627Z,13.42
2023-04-24T06:41:57.997Z,13.39
2023-04-24T06:44:25.424Z,13.51
2023-04-24T06:46:53.053Z,13.56
2023-04-24T06:49:21.147Z,13.57
2023-04-24T06:51:48.517Z,13.70
2023-04-24T06:54:15.873Z,13.73
2023-04-24T06:56:43.298Z,13.75
2023-04-24T06:59:10.705Z,13.64
2023-04-24T07:01:38.134Z,13.80
2023-04-24T07:04:05.818Z,13.84
2023-04-24T07:06:33.580Z,13.88
2023-04-24T07:09:01.406Z,13.71
2023-04-24T07:11:30.505Z,13.70
2023-04-24T07:13:58.004Z,13.60
2023-04-24T07:16:25.842Z,13.60
2023-04-24T07:18:53.449Z,13.49
2023-04-24T07:21:21.062Z,13.66
2023-04-24T07:23:48.450Z,13.67
2023-04-24T07:26:16.017Z,13.64
2023-04-24T07:28:43.413Z,13.81
2023-04-24T07:31:12.934Z,13.65
2023-04-24T07:33:43.762Z,13.73
2023-04-24T07:36:16.422Z,13.71
2023-04-24T07:38:44.162Z,13.64
2023-04-24T07:41:11.513Z,13.70
2023-04-24T07:43:38.893Z,13.77
2023-04-24T07:46:08.805Z,13.85
2023-04-24T07:48:37.421Z,13.89
2023-04-24T07:51:04.882Z,13.95
2023-04-24T07:53:32.308Z,14.12
2023-04-24T07:56:02.983Z,14.16
2023-04-24T07:58:30.374Z,14.21
2023-04-24T08:00:57.673Z,14.36
2023-04-24T08:03:25.964Z,14.29
2023-04-24T08:05:53.560Z,14.38
2023-04-24T08:08:23.200Z,14.40
2023-04-24T08:10:51.105Z,14.33
2023-04-24T08:13:18.747Z,14.42
2023-04-24T08:15:46.694Z,14.49
2023-04-24T08:18:14.686Z,14.56
2023-04-24T08:20:42.502Z,14.73
2023-04-24T08:23:09.975Z,14.70
2023-04-24T08:25:37.400Z,14.86
2023-04-24T08:28:07.751Z,14.94
2023-04-24T08:30:35.211Z,15.05
2023-04-24T08:33:02.711Z,14.98
2023-04-24T08:35:30.198Z,15.10
2023-04-24T08:37:57.574Z,15.12
2023-04-24T08:40:31.270Z,15.22
2023-04-24T08:43:00.208Z,15.16
2023-04-24T08:45:27.834Z,15.40
2023-04-24T08:47:58.119Z,15.48
2023-04-24T08:50:25.934Z,15.44
2023-04-24T08:52:54.657Z,15.46
2023-04-24T08:55:26.149Z,15.54
2023-04-24T08:57:54.785Z,15.42
2023-04-24T09:00:23.085Z,15.52
2023-04-24T09:02:51.763Z,15.48
2023-04-24T09:05:22.421Z,15.58
2023-04-24T09:07:57.601Z,15.50
2023-04-24T09:10:26.437Z,15.48
2023-04-24T09:12:55.329Z,15.46
2023-04-24T09:15:22.774Z,15.44
2023-04-24T09:17:52.077Z,15.61
2023-04-24T09:20:19.566Z,15.69
2023-04-24T09:22:46.956Z,15.63
2023-04-24T09:25:14.549Z,15.76
2023-04-24T09:27:45.032Z,15.78
2023-04-24T09:30:13.080Z,15.93
2023-04-24T09:32:40.872Z,15.95
2023-04-24T09:35:11.065Z,16.00
2023-04-24T09:37:39.358Z,16.00
2023-04-24T09:40:20.092Z,16.14
2023-04-24T09:42:54.511Z,16.24
2023-04-24T09:45:22.613Z,16.08
2023-04-24T09:47:56.706Z,16.16
2023-04-24T09:50:24.501Z,16.30
2023-04-24T09:53:02.346Z,16.36
2023-04-24T09:55:30.801Z,16.31
2023-04-24T09:58:02.212Z,16.38
2023-04-24T10:00:32.373Z,16.37
2023-04-24T10:03:04.981Z,16.42
2023-04-24T10:05:37.697Z,16.60
2023-04-24T10:08:09.529Z,16.75
2023-04-24T10:10:41.106Z,16.78
2023-04-24T10:13:10.095Z,16.99
2023-04-24T10:15:38.317Z,17.06
2023-04-24T10:18:07.755Z,17.06
2023-04-24T10:20:37.026Z,17.13
2023-04-24T10:23:04.912Z,17.14
2023-04-24T10:25:35.808Z,17.24
2023-04-24T10:28:04.296Z,17.52
2023-04-24T10:30:36.875Z,17.52
2023-04-24T10:33:06.071Z,17.67
2023-04-24T10:35:38.589Z,17.80
2023-04-24T10:38:25.296Z,17.86
2023-04-24T10:40:52.759Z,17.83
2023-04-24T10:43:20.513Z,17.94
2023-04-24T10:46:05.680Z,18.01
2023-04-24T10:48:35.273Z,17.99
2023-04-24T10:51:03.164Z,18.06
2023-04-24T10:53:31.610Z,18.08
2023-04-24T10:56:14.484Z,18.20
2023-04-24T10:58:45.555Z,18.24
2023-04-24T11:01:27.823Z,18.14
2023-04-24T11:04:00.719Z,18.20
2023-04-24T11:06:37.028Z,18.14
2023-04-24T11:09:13.756Z,18.31
2023-04-24T11:11:46.517Z,18.35
2023-04-24T11:14:17.214Z,18.40
2023-04-24T11:16:56.209Z,18.33
2023-04-24T11:19:26.713Z,18.23
2023-04-24T11:22:15.660Z,18.33
2023-04-24T11:24:49.064Z,18.44
2023-04-24T11:27:23.711Z,18.31
2023-04-24T11:30:02.285Z,18.38
2023-04-24T11:32:31.268Z,18.39
2023-04-24T11:35:03.575Z,18.53
2023-04-24T11:37:42.639Z,18.62
2023-04-24T11:40:12.370Z,18.64
2023-04-24T11:42:46.168Z,18.74
2023-04-24T11:45:14.920Z,18.79
2023-04-24T11:47:43.217Z,18.75
2023-04-24T11:50:16.407Z,18.72
2023-04-24T11:52:46.210Z,18.69
2023-04-24T11:55:16.313Z,18.76
2023-04-24T11:57:45.667Z,18.68
2023-04-24T12:00:24.321Z,18.86
2023-04-24T12:02:52.834Z,18.91
2023-04-24T12:05:22.245Z,19.03
2023-04-24T12:07:50.601Z,19.07
2023-04-24T12:10:29.283Z,19.14
2023-04-24T12:12:58.682Z,19.32
2023-04-24T12:15:27.297Z,19.51
2023-04-24T12:17:55.857Z,19.50
2023-04-24T12:20:32.196Z,19.47
2023-04-24T12:23:02.080Z,19.33
2023-04-24T12:25:32.443Z,19.32
2023-04-24T12:28:06.091Z,19.15
2023-04-24T12:30:36.517Z,19.09
2023-04-24T12:33:04.691Z,19.21
2023-04-24T12:35:34.960Z,19.17
2023-04-24T12:38:15.131Z,19.21
2023-04-24T12:40:44.204Z,19.18
2023-04-24T12:43:16.528Z,19.28
2023-04-24T12:45:45.174Z,19.21
2023-04-24T12:48:13.340Z,19.31
2023-04-24T12:50:41.467Z,19.25
2023-04-24T12:53:10.062Z,19.23
2023-04-24T12:55:38.120Z,19.25
2023-04-24T12:58:05.886Z,19.26
2023-04-24T13:00:33.843Z,19.34
2023-04-24T13:03:02.098Z,19.38
2023-04-24T13:05:29.727Z,19.41
2023-04-24T13:07:58.102Z,19.52
2023-04-24T13:10:25.577Z,19.50
2023-04-24T13:12:53.406Z,19.57
2023-04-24T13:15:21.242Z,19.75
2023-04-24T13:17:48.916Z,19.68
2023-04-24T13:20:16.407Z,19.56
2023-04-24T13:22:43.806Z,19.43
2023-04-24T13:25:11.383Z,19.36
2023-04-24T13:27:41.746Z,19.20
2023-04-24T13:30:09.936Z,19.11
2023-04-24T13:32:37.754Z,18.96
2023-04-24T13:35:05.555Z,19.03
2023-04-24T13:37:33.562Z,19.08
2023-04-24T13:40:01.131Z,19.16
2023-04-24T13:42:28.720Z,19.23
2023-04-24T13:44:56.311Z,19.14
2023-04-24T13:47:23.768Z,19.00
2023-04-24T13:49:51.264Z,18.98
2023-04-24T13:52:18.704Z,19.07
2023-04-24T13:55:05.005Z,19.07
2023-04-24T13:57:32.639Z,19.06
2023-04-24T14:00:05.216Z,19.09
2023-04-24T14:02:34.769Z,19.11
2023-04-24T14:05:02.503Z,19.19
2023-04-24T14:07:30.492Z,19.23
2023-04-24T14:09:58.212Z,19.09
2023-04-24T14:12:26.977Z,19.06
2023-04-24T14:14:54.965Z,19.05
2023-04-24T14:17:22.563Z,19.15
2023-04-24T14:19:50.139Z,19.17
2023-04-24T14:22:17.725Z,19.25
2023-04-24T14:24:45.143Z,19.23
2023-04-24T14:27:12.814Z,19.20
2023-04-24T14:29:40.363Z,19.04
2023-04-24T14:32:10.011Z,19.00
2023-04-24T14:34:37.756Z,18.96
2023-04-24T14:37:05.247Z,18.96
2023-04-24T14:39:32.680Z,19.04
2023-04-24T14:42:02.683Z,19.00
2023-04-24T14:44:30.061Z,19.09
2023-04-24T14:46:57.531Z,19.12
2023-04-24T14:49:25.143Z,19.10
2023-04-24T14:51:52.670Z,19.14
2023-04-24T14:54:20.894Z,19.08
2023-04-24T14:56:48.496Z,18.98
2023-04-24T14:59:16.066Z,18.95
2023-04-24T15:01:43.580Z,18.88
2023-04-24T15:04:11.230Z,18.92
2023-04-24T15:06:38.839Z,18.94
2023-04-24T15:09:06.416Z,18.91
2023-04-24T15:11:33.996Z,18.91
2023-04-24T15:14:01.477Z,18.91
2023-04-24T15:16:28.949Z,18.79
2023-04-24T15:18:58.131Z,18.86
2023-04-24T15:21:26.917Z,18.81
2023-04-24T15:23:54.412Z,18.76
2023-04-24T15:26:23.894Z,18.87
2023-04-24T15:28:53.479Z,18.82
2023-04-24T15:31:23.375Z,18.77
2023-04-24T15:33:51.670Z,18.77
2023-04-24T15:36:19.634Z,18.71
2023-04-24T15:38:47.050Z,18.64
2023-04-24T15:41:14.484Z,18.67
2023-04-24T15:43:42.319Z,18.60
2023-04-24T15:46:11.042Z,18.49
2023-04-24T15:48:41.502Z,18.37
2023-04-24T15:51:09.206Z,18.23
2023-04-24T15:53:36.656Z,18.20
2023-04-24T15:56:04.285Z,18.11
2023-04-24T15:58:31.776Z,18.14
2023-04-24T16:00:59.225Z,18.26
2023-04-24T16:03:26.919Z,18.38
2023-04-24T16:05:54.518Z,18.41
2023-04-24T16:08:22.550Z,18.36
2023-04-24T16:10:50.159Z,18.33
2023-04-24T16:13:18.861Z,18.31
2023-04-24T16:15:46.664Z,18.25
2023-04-24T16:18:14.304Z,18.19
2023-04-24T16:20:41.754Z,18.19
2023-04-24T16:23:09.257Z,18.20
2023-04-24T16:25:36.644Z,18.13
2023-04-24T16:28:04.114Z,18.21
2023-04-24T16:30:31.824Z,18.20
2023-04-24T16:32:59.280Z,18.27
2023-04-24T16:35:26.853Z,18.37
2023-04-24T16:37:54.297Z,18.42
2023-04-24T16:40:21.837Z,18.45
2023-04-24T16:42:50.161Z,18.44
2023-04-24T16:45:17.657Z,18.38
2023-04-24T16:47:45.067Z,18.41
2023-04-24T16:50:12.772Z,18.39
2023-04-24T16:52:40.312Z,18.42
2023-04-24T16:55:09.003Z,18.49
2023-04-24T16:57:36.609Z,18.46
2023-04-24T17:00:04.590Z,18.52
2023-04-24T17:02:33.787Z,18.69
2023-04-24T17:05:01.388Z,18.87
2023-04-24T17:07:29.574Z,18.64
2023-04-24T17:09:56.972Z,18.64
2023-04-24T17:12:24.313Z,18.51
2023-04-24T17:14:51.679Z,18.49
2023-04-24T17:17:20.692Z,18.22
2023-04-24T17:19:48.167Z,18.11
2023-04-24T17:22:15.501Z,18.15
2023-04-24T17:24:43.043Z,18.05
2023-04-24T17:27:15.022Z,17.85
2023-04-24T17:29:43.098Z,17.73
2023-04-24T17:32:10.790Z,17.77
2023-04-24T17:34:38.310Z,17.62
2023-04-24T17:37:05.781Z,17.51
2023-04-24T17:39:33.212Z,17.55
2023-04-24T17:42:02.182Z,17.57
2023-04-24T17:44:29.574Z,17.46
2023-04-24T17:46:56.941Z,17.31
2023-04-24T17:49:24.401Z,17.43
2023-04-24T17:51:51.856Z,17.45
2023-04-24T17:54:19.222Z,17.42
2023-04-24T17:56:46.768Z,17.37
2023-04-24T17:59:14.234Z,17.15
2023-04-24T18:01:41.669Z,17.17
2023-04-24T18:04:09.173Z,17.07
2023-04-24T18:06:37.059Z,17.06
2023-04-24T18:09:04.625Z,16.92
2023-04-24T18:11:32.093Z,16.80
2023-04-24T18:13:59.517Z,16.86
2023-04-24T18:16:26.981Z,16.92
2023-04-24T18:18:54.408Z,16.83
2023-04-24T18:21:21.947Z,16.82
2023-04-24T18:23:49.340Z,16.74
2023-04-24T18:26:17.230Z,16.66
2023-04-24T18:28:44.840Z,16.65
2023-04-24T18:31:12.480Z,16.57
2023-04-24T18:33:39.957Z,16.66
2023-04-24T18:36:07.472Z,16.65
2023-04-24T18:38:36.662Z,16.58
2023-04-24T18:41:04.457Z,16.47
2023-04-24T18:43:31.995Z,16.44
2023-04-24T18:45:59.338Z,16.32
2023-04-24T18:48:28.745Z,16.29
2023-04-24T18:50:56.112Z,16.29
2023-04-24T18:53:24.102Z,16.33
2023-04-24T18:55:51.567Z,16.25
2023-04-24T18:58:19.119Z,16.22
2023-04-24T19:00:46.675Z,16.11
2023-04-24T19:03:14.453Z,16.06
2023-04-24T19:05:42.180Z,15.97
2023-04-24T19:08:09.567Z,15.97
2023-04-24T19:10:37.125Z,15.92
2023-04-24T19:13:04.639Z,15.88
2023-04-24T19:15:33.574Z,15.79
2023-04-24T19:18:01.194Z,15.56
2023-04-24T19:20:28.647Z,15.55
2023-04-24T19:22:56.593Z,15.65
2023-04-24T19:25:24.557Z,15.60
2023-04-24T19:27:52.044Z,15.50
2023-04-24T19:30:19.608Z,15.40
2023-04-24T19:32:47.171Z,15.38
2023-04-24T19:35:14.764Z,15.32
2023-04-24T19:37:42.178Z,15.24
2023-04-24T19:40:09.811Z,15.17
2023-04-24T19:45:11.869Z,15.21
2023-04-24T19:47:39.993Z,15.09
2023-04-24T19:50:08.398Z,15.00
2023-04-24T19:52:36.063Z,14.93
2023-04-24T19:55:04.081Z,14.95
2023-04-24T19:57:31.518Z,15.02
2023-04-24T19:59:58.892Z,15.12
2023-04-24T20:02:26.470Z,15.05
2023-04-24T20:04:54.179Z,14.91
2023-04-24T20:07:21.937Z,14.83
2023-04-24T20:09:49.293Z,14.91
2023-04-24T20:12:16.799Z,14.87
2023-04-24T20:14:44.704Z,14.93
2023-04-24T20:17:12.182Z,14.82
2023-04-24T20:19:41.007Z,14.89
2023-04-24T20:22:11.322Z,14.83
2023-04-24T20:24:40.507Z,14.90
2023-04-24T20:27:08.046Z,14.77
2023-04-24T20:29:35.568Z,14.82
2023-04-24T20:32:03.160Z,14.83
2023-04-24T20:34:31.486Z,14.85
2023-04-24T20:36:59.205Z,14.82
2023-04-24T20:39:26.782Z,14.86
2023-04-24T20:41:54.274Z,14.86
2023-04-24T20:44:22.246Z,14.89
2023-04-24T20:46:49.937Z,14.85
2023-04-24T20:49:17.471Z,14.86
2023-04-24T20:51:44.851Z,14.76
2023-04-24T20:54:12.258Z,14.78
2023-04-24T20:56:39.736Z,14.80
2023-04-24T20:59:07.371Z,14.77
2023-04-24T21:01:34.817Z,14.73
2023-04-24T21:04:02.386Z,14.83
2023-04-24T21:06:29.849Z,14.76
2023-04-24T21:08:57.256Z,14.79
2023-04-24T21:11:24.620Z,15.03
2023-04-24T21:13:52.038Z,14.95
2023-04-24T21:16:19.601Z,14.87
2023-04-24T21:18:47.090Z,14.90
2023-04-24T21:21:14.780Z,14.99
2023-04-24T21:23:42.204Z,14.92
2023-04-24T21:26:09.644Z,14.91
2023-04-24T21:28:37.193Z,14.86
2023-04-24T21:31:04.750Z,14.71
2023-04-24T21:33:32.217Z,14.83
2023-04-24T21:35:59.790Z,14.78
2023-04-24T21:38:27.343Z,14.71
2023-04-24T21:40:54.772Z,14.72
2023-04-24T21:43:28.036Z,14.63
2023-04-24T21:46:01.348Z,14.56
2023-04-24T21:48:28.924Z,14.56
2023-04-24T21:50:56.414Z,14.51
2023-04-24T21:53:23.898Z,14.40
2023-04-24T21:55:51.409Z,14.39
2023-04-24T21:58:18.982Z,14.37
2023-04-24T22:00:47.013Z,14.43
2023-04-24T22:03:14.687Z,14.55
2023-04-24T22:05:42.285Z,14.65
2023-04-24T22:08:10.493Z,14.63
2023-04-24T22:10:38.024Z,14.64
2023-04-24T22:13:05.494Z,14.43
2023-04-24T22:15:33.032Z,14.40
2023-04-24T22:18:01.299Z,14.38
2023-04-24T22:20:30.189Z,14.40
2023-04-24T22:22:57.808Z,14.35
2023-04-24T22:25:25.171Z,14.30
2023-04-24T22:27:52.634Z,14.13
2023-04-24T22:30:20.123Z,14.07
2023-04-24T22:32:47.938Z,14.06
2023-04-24T22:35:16.169Z,14.11
2023-04-24T22:37:43.635Z,14.00
2023-04-24T22:40:11.696Z,14.03
2023-04-24T22:42:39.226Z,13.91
2023-04-24T22:45:08.362Z,13.86
2023-04-24T22:47:35.775Z,13.92
2023-04-24T22:50:03.516Z,13.79
2023-04-24T22:52:31.047Z,13.74
2023-04-24T22:54:58.548Z,13.72
2023-04-24T22:57:25.998Z,13.71
2023-04-24T22:59:54.302Z,13.62
2023-04-24T23:02:23.195Z,13.54
2023-04-24T23:04:50.869Z,13.59
2023-04-24T23:07:18.355Z,13.50
2023-04-24T23:09:45.865Z,13.59
2023-04-24T23:12:13.261Z,13.55
2023-04-24T23:14:40.720Z,13.52
2023-04-24T23:17:08.188Z,13.38
2023-04-24T23:19:35.626Z,13.45
2023-04-24T23:22:03.056Z,13.39
2023-04-24T23:24:30.446Z,13.45
2023-04-24T23:26:57.902Z,13.52
2023-04-24T23:29:26.270Z,13.54
2023-04-24T23:31:54.227Z,13.58
2023-04-24T23:34:21.859Z,13.65
2023-04-24T23:36:49.957Z,13.62
2023-04-24T23:39:17.436Z,13.66
2023-04-24T23:41:44.892Z,13.57
2023-04-24T23:44:12.356Z,13.63
2023-04-24T23:46:39.783Z,13.68
2023-04-24T23:49:07.361Z,13.65
2023-04-24T23:51:35.008Z,13.67
2023-04-24T23:54:02.601Z,13.68
2023-04-24T23:56:30.084Z,13.65
2023-04-24T23:58:57.462Z,13.74
